Time;durP1;ratioP1;P1;durP2;ratioP2;P2;SDS_P1;SDS_P2;PMS_P1;PMS_P2;Temp;Humidity;BMP_temperature;BMP_pressure;BME280_temperature;BME280_humidity;BME280_pressure;Samples;Min_cycle;Max_cycle;Signal;HPM_P1;HPM_P2
2021/04/09 00:01:00;;;;;;;11.35;5.53;;;;;;;7.68;48.84;101716.72;5043258;28;20048;-83
2021/04/09 00:03:46;;;;;;;7.10;3.78;;;;;;;7.87;48.02;101711.59;5043781;28;20116;-84
2021/04/09 00:06:32;;;;;;;12.02;5.47;;;;;;;7.93;47.83;101721.31;5045140;28;20108;-83
2021/04/09 00:09:16;;;;;;;10.70;3.85;;;;;;;7.76;48.73;101724.31;5032409;28;20409;-84
2021/04/09 00:12:02;;;;;;;8.45;4.28;;;;;;;7.69;49.30;101724.59;5043924;28;20052;-82
2021/04/09 00:14:47;;;;;;;14.38;5.22;;;;;;;7.81;49.29;101728.91;5042622;28;20052;-82
2021/04/09 00:17:32;;;;;;;9.40;4.07;;;;;;;7.61;49.22;101716.22;5033900;28;20056;-84
2021/04/09 00:20:20;;;;;;;11.73;5.07;;;;;;;7.64;49.01;101721.88;5031215;28;20044;-84
2021/04/09 00:23:04;;;;;;;7.80;4.97;;;;;;;7.52;49.69;101718.63;5039904;28;20048;-84
2021/04/09 00:25:50;;;;;;;12.98;5.68;;;;;;;7.64;47.99;101716.47;5040099;28;20048;-83
2021/04/09 00:28:35;;;;;;;7.57;3.75;;;;;;;7.59;48.26;101715.66;5045622;28;20052;-84
2021/04/09 00:31:20;;;;;;;5.75;3.67;;;;;;;7.39;49.50;101708.34;5039108;28;20041;-84
2021/04/09 00:34:05;;;;;;;7.32;4.18;;;;;;;7.39;49.72;101726.47;5040502;28;20049;-84
2021/04/09 00:36:50;;;;;;;9.57;5.03;;;;;;;7.23;49.27;101731.03;5039780;28;20036;-84
2021/04/09 00:39:36;;;;;;;12.30;5.28;;;;;;;7.25;49.95;101718.06;5039706;28;20072;-83
2021/04/09 00:42:21;;;;;;;10.77;4.88;;;;;;;7.25;49.85;101721.59;5039379;28;20056;-84
2021/04/09 00:45:07;;;;;;;6.95;4.30;;;;;;;7.43;48.78;101724.84;5034419;28;20524;-83
2021/04/09 00:47:52;;;;;;;11.15;5.15;;;;;;;7.34;49.36;101732.69;5044658;28;20052;-84
2021/04/09 00:50:37;;;;;;;8.20;4.10;;;;;;;7.25;49.59;101728.88;5046614;28;20041;-85
2021/04/09 00:53:23;;;;;;;10.15;5.80;;;;;;;7.48;48.71;101722.13;5040214;28;20044;-84
2021/04/09 00:56:10;;;;;;;21.17;5.18;;;;;;;7.28;49.27;101733.75;5047301;28;20049;-83
2021/04/09 00:59:00;;;;;;;9.68;4.95;;;;;;;7.17;49.65;101723.97;5042667;28;20047;-84
2021/04/09 01:01:45;;;;;;;8.05;5.32;;;;;;;7.01;50.08;101725.06;5046516;28;20037;-84
2021/04/09 01:04:31;;;;;;;11.73;5.43;;;;;;;6.93;49.79;101717.44;5054354;28;20422;-84
2021/04/09 01:07:17;;;;;;;17.58;5.78;;;;;;;6.71;51.04;101723.03;5038558;28;20421;-83
2021/04/09 01:10:05;;;;;;;7.20;5.13;;;;;;;6.66;51.78;101726.53;5048649;28;20055;-83
2021/04/09 01:12:50;;;;;;;14.88;5.57;;;;;;;6.83;50.76;101719.03;5041213;28;20048;-83
2021/04/09 01:15:35;;;;;;;8.88;5.78;;;;;;;7.04;51.44;101719.09;5044733;28;20420;-84
2021/04/09 01:18:37;;;;;;;8.27;5.03;;;;;;;7.06;51.76;101716.94;5046604;28;20052;-84
2021/04/09 01:21:46;;;;;;;13.38;5.78;;;;;;;6.97;51.92;101719.34;5045838;28;20041;-84
2021/04/09 01:25:05;;;;;;;11.55;6.95;;;;;;;6.99;51.81;101724.50;5039722;28;20060;-82
2021/04/09 01:28:07;;;;;;;7.60;5.50;;;;;;;7.02;51.80;101721.25;5045434;28;20044;-84
2021/04/09 01:31:13;;;;;;;8.68;6.15;;;;;;;6.92;52.09;101723.91;5035088;28;20036;-84
2021/04/09 01:34:00;;;;;;;9.60;6.28;;;;;;;6.92;52.24;101713.09;5050192;28;20036;-85
2021/04/09 01:36:48;;;;;;;13.40;5.97;;;;;;;6.88;52.51;101713.66;5040293;28;20040;-84
2021/04/09 01:39:42;;;;;;;9.95;6.18;;;;;;;6.96;52.11;101714.22;5044815;28;20044;-85
2021/04/09 01:42:30;;;;;;;11.13;5.45;;;;;;;6.97;52.31;101707.72;5039776;28;20044;-84
2021/04/09 01:45:18;;;;;;;9.95;6.60;;;;;;;6.92;50.90;101718.50;5040246;28;20548;-81
2021/04/09 01:48:07;;;;;;;15.60;5.93;;;;;;;6.80;52.10;101706.06;5043140;28;20072;-84
2021/04/09 01:50:53;;;;;;;11.32;6.03;;;;;;;6.84;52.77;101717.97;5044014;28;20424;-84
2021/04/09 01:53:45;;;;;;;10.15;6.65;;;;;;;6.63;51.02;101721.66;5043680;28;20551;-83
2021/04/09 01:56:32;;;;;;;7.95;5.75;;;;;;;6.53;53.26;101713.53;5046822;28;20539;-81
2021/04/09 01:59:19;;;;;;;13.90;6.85;;;;;;;6.25;52.14;101717.41;5042685;28;20044;-83
2021/04/09 02:02:05;;;;;;;12.43;6.55;;;;;;;6.51;52.81;101726.47;5039084;28;20044;-83
2021/04/09 02:04:51;;;;;;;10.18;5.90;;;;;;;6.21;52.31;101724.41;5046205;28;20056;-83
2021/04/09 02:07:37;;;;;;;10.85;6.07;;;;;;;6.30;52.71;101728.25;5043779;28;20044;-84
2021/04/09 02:10:24;;;;;;;11.25;7.40;;;;;;;5.99;53.70;101708.34;5036878;28;20052;-83
2021/04/09 02:13:09;;;;;;;12.35;6.80;;;;;;;6.20;53.09;101721.97;5041714;28;20045;-83
2021/04/09 02:15:55;;;;;;;;;;;;;;;6.31;53.58;101726.38;5036676;28;20064;-83
2021/04/09 02:18:40;;;;;;;9.80;6.18;;;;;;;6.42;52.04;101728.06;5045145;28;19925;-83
2021/04/09 02:21:25;;;;;;;9.65;5.20;;;;;;;6.40;52.20;101717.50;5040384;28;20036;-84
2021/04/09 02:24:10;;;;;;;;;;;;;;;6.47;51.90;101729.97;5040984;28;20056;-83
2021/04/09 02:26:55;;;;;;;10.37;5.03;;;;;;;6.48;51.52;101716.19;5043545;28;20292;-83
2021/04/09 02:29:42;;;;;;;7.95;4.72;;;;;;;6.47;51.94;101730.78;5046008;28;20548;-84
2021/04/09 02:32:28;;;;;;;10.77;6.95;;;;;;;6.64;50.76;101723.31;5041117;28;20044;-84
2021/04/09 02:35:14;;;;;;;5.80;4.32;;;;;;;6.51;51.14;101731.88;5044059;28;20055;-84
2021/04/09 02:38:01;;;;;;;11.38;6.65;;;;;;;6.27;52.59;101730.66;5040359;28;20524;-84
2021/04/09 02:40:48;;;;;;;9.00;6.22;;;;;;;6.21;53.43;101726.31;5040139;28;20048;-83
2021/04/09 02:43:33;;;;;;;15.45;6.30;;;;;;;6.18;53.70;101729.53;5038692;28;20430;-82
2021/04/09 02:46:48;;;;;;;12.48;6.53;;;;;;;6.07;52.30;101727.84;5046175;28;20049;-83
2021/04/09 02:49:36;;;;;;;10.63;6.03;;;;;;;6.02;53.61;101731.31;5030873;28;20052;-82
2021/04/09 02:52:23;;;;;;;11.57;6.68;;;;;;;6.11;51.98;101734.34;5037410;28;20555;-84
2021/04/09 02:55:13;;;;;;;11.95;5.85;;;;;;;5.94;52.78;101729.91;5044064;28;20048;-80
2021/04/09 02:58:00;;;;;;;13.93;6.80;;;;;;;6.00;53.93;101723.47;5040263;28;20422;-82
2021/04/09 03:00:47;;;;;;;10.57;6.63;;;;;;;6.05;53.65;101729.97;5042991;28;20045;-81
2021/04/09 03:03:36;;;;;;;10.85;6.90;;;;;;;5.99;54.60;101735.34;5043693;28;20064;-81
2021/04/09 03:06:21;;;;;;;15.68;7.10;;;;;;;5.99;55.10;101738.03;5041571;28;20048;-80
2021/04/09 03:09:08;;;;;;;12.13;6.68;;;;;;;6.05;55.24;101740.78;5042738;28;20056;-81
2021/04/09 03:11:53;;;;;;;12.02;7.03;;;;;;;6.08;55.67;101748.38;5044070;28;20046;-80
2021/04/09 03:14:40;;;;;;;15.45;5.78;;;;;;;6.06;54.24;101742.41;5043068;28;20039;-80
2021/04/09 03:17:39;;;;;;;11.40;7.47;;;;;;;6.14;53.56;101739.25;5039810;28;20044;-80
2021/04/09 03:20:24;;;;;;;8.93;5.85;;;;;;;5.91;55.92;101743.94;5040408;28;20410;-80
2021/04/09 03:23:11;;;;;;;25.20;7.25;;;;;;;5.69;54.22;101743.19;5039210;28;20052;-79
2021/04/09 03:25:55;;;;;;;31.83;7.28;;;;;;;5.49;54.77;101743.00;5045326;28;20117;-80
2021/04/09 03:28:41;;;;;;;15.55;5.28;;;;;;;5.55;54.94;101739.28;5058967;22;20060;-76
2021/04/09 03:31:26;;;;;;;13.90;7.30;;;;;;;5.63;54.97;101743.41;5023118;28;20049;-76
2021/04/09 03:34:11;;;;;;;8.88;5.75;;;;;;;5.51;55.09;101746.25;5022993;28;20292;-76
2021/04/09 03:36:56;;;;;;;9.32;5.53;;;;;;;5.33;55.42;101742.06;5019230;28;20532;-76
2021/04/09 03:39:41;;;;;;;15.98;6.88;;;;;;;5.15;55.92;101743.22;5023391;28;20060;-76
2021/04/09 03:42:26;;;;;;;13.38;6.68;;;;;;;5.04;56.25;101754.97;5019989;28;20048;-76
2021/04/09 03:45:11;;;;;;;12.25;6.15;;;;;;;4.89;56.42;101749.41;5021953;28;20402;-76
2021/04/09 03:47:56;;;;;;;12.05;7.50;;;;;;;4.97;56.54;101757.06;5024014;28;20121;-76
2021/04/09 03:50:41;;;;;;;10.02;5.60;;;;;;;4.97;56.08;101750.84;5022504;28;20041;-76
2021/04/09 03:53:26;;;;;;;13.23;7.32;;;;;;;4.96;56.49;101763.50;5020374;28;20506;-76
2021/04/09 03:56:12;;;;;;;17.08;7.95;;;;;;;5.18;56.14;101758.09;5024742;28;20517;-76
2021/04/09 03:58:57;;;;;;;11.00;6.95;;;;;;;5.44;54.62;101751.03;5020526;28;20045;-75
2021/04/09 04:01:42;;;;;;;12.65;5.85;;;;;;;5.44;54.88;101757.25;5020193;28;20469;-76
2021/04/09 04:04:27;;;;;;;;;;;;;;;5.39;54.79;101753.69;5020525;28;20120;-76
2021/04/09 04:07:12;;;;;;;18.13;6.80;;;;;;;5.40;54.27;101753.44;5022726;28;19913;-76
2021/04/09 04:09:56;;;;;;;11.05;6.82;;;;;;;5.24;54.63;101751.66;5018654;28;20049;-76
2021/04/09 04:12:41;;;;;;;9.13;5.60;;;;;;;5.28;54.33;101754.69;5026681;28;20168;-76
2021/04/09 04:15:26;;;;;;;52.38;6.68;;;;;;;5.29;54.92;101753.59;5020512;28;20056;-76
2021/04/09 04:18:11;;;;;;;16.02;6.88;;;;;;;5.05;54.61;101753.91;5014533;28;20415;-76
2021/04/09 04:20:56;;;;;;;11.52;5.93;;;;;;;4.90;55.63;101756.41;5024801;28;20422;-76
2021/04/09 04:23:41;;;;;;;11.90;6.07;;;;;;;4.69;56.70;101758.06;5028621;28;20406;-76
2021/04/09 04:26:26;;;;;;;8.85;5.45;;;;;;;4.62;56.37;101767.41;5024808;28;20049;-76
2021/04/09 04:29:11;;;;;;;10.73;5.65;;;;;;;4.77;55.48;101756.00;5018533;28;20044;-76
2021/04/09 04:31:56;;;;;;;15.07;6.70;;;;;;;4.65;56.21;101761.50;5024942;28;20052;-76
2021/04/09 04:34:41;;;;;;;12.93;7.45;;;;;;;4.46;57.29;101752.09;5020409;28;20045;-76
2021/04/09 04:37:26;;;;;;;14.75;6.30;;;;;;;4.47;56.30;101757.22;5021546;28;20052;-76
2021/04/09 04:40:11;;;;;;;16.15;7.30;;;;;;;4.92;56.18;101758.88;5025516;28;20045;-76
2021/04/09 04:42:56;;;;;;;16.70;6.97;;;;;;;4.75;56.02;101769.72;5025535;28;20065;-76
2021/04/09 04:45:42;;;;;;;8.48;4.93;;;;;;;4.72;56.35;101765.63;5022163;28;20048;-76
2021/04/09 04:48:26;;;;;;;11.07;5.60;;;;;;;4.49;57.03;101773.13;5025035;28;20049;-79
2021/04/09 04:51:11;;;;;;;16.75;5.18;;;;;;;5.32;55.50;101771.97;5019807;28;20033;-78
2021/04/09 04:53:56;;;;;;;9.75;5.53;;;;;;;5.09;54.95;101781.16;5019959;28;20508;-81
2021/04/09 04:56:41;;;;;;;11.38;4.85;;;;;;;5.25;54.79;101774.06;5022992;28;20036;-79
2021/04/09 04:59:26;;;;;;;11.60;4.82;;;;;;;5.10;54.82;101775.53;5023080;28;20060;-79
2021/04/09 05:02:11;;;;;;;9.30;4.65;;;;;;;5.03;55.23;101769.50;5021408;28;20045;-78
2021/04/09 05:04:56;;;;;;;9.77;5.40;;;;;;;5.05;54.70;101780.03;5028659;28;20060;-79
2021/04/09 05:07:41;;;;;;;13.73;5.72;;;;;;;4.98;55.42;101784.78;5022256;28;20055;-79
2021/04/09 05:10:26;;;;;;;5.82;4.13;;;;;;;5.42;55.08;101783.69;5020751;28;20057;-80
2021/04/09 05:13:11;;;;;;;17.73;5.65;;;;;;;5.07;55.32;101786.81;5027516;28;20040;-78
2021/04/09 05:15:56;;;;;;;8.70;4.72;;;;;;;5.70;53.76;101796.06;5026209;28;20547;-79
2021/04/09 05:18:41;;;;;;;11.73;5.47;;;;;;;5.77;53.31;101787.78;5020558;28;20041;-79
2021/04/09 05:21:27;;;;;;;9.70;4.95;;;;;;;6.11;52.59;101799.16;5026354;28;20065;-80
2021/04/09 05:24:12;;;;;;;20.35;7.07;;;;;;;6.15;52.30;101797.56;5023102;28;20045;-79
2021/04/09 05:26:57;;;;;;;20.52;5.55;;;;;;;6.26;51.85;101801.97;5013781;28;20048;-78
2021/04/09 05:29:42;;;;;;;14.77;5.32;;;;;;;6.32;51.56;101800.94;5015895;28;20053;-77
2021/04/09 05:32:27;;;;;;;70.05;8.32;;;;;;;6.23;51.92;101797.09;5025840;28;20041;-78
2021/04/09 05:35:13;;;;;;;29.42;5.85;;;;;;;6.55;51.50;101805.94;5026347;28;20417;-80
2021/04/09 05:37:58;;;;;;;50.13;8.85;;;;;;;6.94;50.69;101800.19;5015957;28;20207;-79
2021/04/09 05:40:43;;;;;;;14.63;5.57;;;;;;;7.48;49.01;101798.72;5025837;28;20438;-78
2021/04/09 05:43:28;;;;;;;13.38;5.82;;;;;;;7.82;48.35;101804.47;5010427;28;20045;-79
2021/04/09 05:46:14;;;;;;;11.30;5.60;;;;;;;8.02;48.03;101815.31;5024220;28;20520;-79
2021/04/09 05:48:59;;;;;;;13.63;7.80;;;;;;;8.41;46.99;101812.88;5020759;28;20049;-79
2021/04/09 05:51:43;;;;;;;19.58;7.10;;;;;;;8.62;46.33;101812.81;5023972;28;20053;-79
2021/04/09 05:54:29;;;;;;;15.05;6.78;;;;;;;8.97;46.37;101815.41;5023508;28;20069;-79
2021/04/09 05:57:14;;;;;;;;;;;;;;;9.54;44.67;101817.56;5029202;28;20040;-79
2021/04/09 05:59:59;;;;;;;34.08;9.13;;;;;;;10.02;43.53;101809.59;5022878;28;20305;-79
2021/04/09 06:02:44;;;;;;;16.50;5.45;;;;;;;10.44;42.67;101814.44;5022221;28;20045;-79
2021/04/09 06:05:30;;;;;;;23.92;6.55;;;;;;;10.48;43.35;101815.47;5027667;28;20049;-79
2021/04/09 06:08:15;;;;;;;35.03;6.90;;;;;;;10.38;43.54;101810.94;5026012;28;20048;-79
2021/04/09 06:11:00;;;;;;;17.75;6.18;;;;;;;10.81;43.10;101808.34;5021092;28;20044;-79
2021/04/09 06:13:46;;;;;;;12.20;5.47;;;;;;;11.17;42.54;101814.16;5026541;28;20509;-79
2021/04/09 06:16:31;;;;;;;9.93;4.15;;;;;;;10.54;44.03;101808.88;5025590;28;20052;-79
2021/04/09 06:19:16;;;;;;;18.67;6.35;;;;;;;9.84;46.06;101814.66;5024394;28;20048;-79
2021/04/09 06:22:01;;;;;;;16.67;5.10;;;;;;;9.48;46.60;101823.31;5024890;28;20040;-79
2021/04/09 06:24:47;;;;;;;14.95;5.43;;;;;;;9.33;47.77;101813.34;5024345;28;20045;-79
2021/04/09 06:27:32;;;;;;;21.48;8.35;;;;;;;10.84;44.45;101821.34;5023468;28;20521;-79
2021/04/09 06:30:17;;;;;;;13.00;5.20;;;;;;;15.48;34.69;101825.59;5028753;28;20508;-79
2021/04/09 06:33:03;;;;;;;12.55;4.60;;;;;;;17.71;29.98;101830.41;5012201;28;20045;-79
2021/04/09 06:35:49;;;;;;;26.02;6.55;;;;;;;19.33;27.80;101819.81;5024246;28;20056;-79
2021/04/09 06:38:34;;;;;;;24.05;5.18;;;;;;;19.93;26.14;101825.19;5021310;28;20418;-79
2021/04/09 06:41:20;;;;;;;12.15;4.88;;;;;;;19.71;26.34;101835.97;5024786;28;20053;-79
2021/04/09 06:44:05;;;;;;;8.73;4.65;;;;;;;20.99;24.75;101829.94;5021370;28;20414;-79
2021/04/09 06:46:50;;;;;;;12.05;4.75;;;;;;;20.86;23.83;101820.97;5026699;28;20048;-79
2021/04/09 06:49:35;;;;;;;;;;;;;;;20.79;23.84;101833.78;5026413;28;20041;-79
2021/04/09 06:52:21;;;;;;;13.50;4.13;;;;;;;22.08;22.51;101834.38;5025202;28;19916;-79
2021/04/09 06:55:06;;;;;;;10.70;5.47;;;;;;;23.27;20.52;101830.47;5023059;28;20423;-80
2021/04/09 06:57:54;;;;;;;7.35;3.78;;;;;;;24.78;18.76;101843.81;5024154;28;20041;-80
2021/04/09 07:00:40;;;;;;;15.77;4.57;;;;;;;25.05;18.03;101840.47;5009914;28;20060;-80
2021/04/09 07:03:25;;;;;;;66.32;5.75;;;;;;;25.31;17.27;101847.81;5022758;28;20040;-80
2021/04/09 07:06:11;;;;;;;11.25;3.45;;;;;;;27.15;15.75;101847.53;5024484;28;20406;-80
2021/04/09 07:08:57;;;;;;;7.82;2.97;;;;;;;26.24;16.15;101835.91;5022215;28;20113;-80
2021/04/09 07:11:51;;;;;;;13.00;3.53;;;;;;;24.33;17.70;101831.06;5023002;28;20040;-80
2021/04/09 07:14:54;;;;;;;11.20;3.17;;;;;;;23.49;19.10;101835.19;5021168;28;20064;-79
2021/04/09 07:17:49;;;;;;;9.23;3.00;;;;;;;23.63;18.50;101835.38;5021975;28;20053;-79
2021/04/09 07:20:36;;;;;;;11.13;3.47;;;;;;;23.09;19.28;101835.78;5026200;28;20044;-79
2021/04/09 07:23:21;;;;;;;9.73;3.25;;;;;;;26.10;15.75;101837.84;5024886;28;20056;-79
2021/04/09 07:26:06;;;;;;;13.02;3.33;;;;;;;25.21;16.87;101837.41;5018131;28;20402;-80
2021/04/09 07:28:51;;;;;;;18.02;4.20;;;;;;;27.26;15.27;101848.31;5019904;28;20052;-80
2021/04/09 07:31:36;;;;;;;9.85;3.15;;;;;;;28.44;13.83;101853.03;5008839;28;20036;-80
2021/04/09 07:34:21;;;;;;;8.95;3.55;;;;;;;27.33;14.38;101862.25;5023327;28;20064;-79
2021/04/09 07:37:06;;;;;;;5.75;2.95;;;;;;;28.40;13.86;101863.47;5027634;28;20409;-79
2021/04/09 07:40:00;;;;;;;7.97;3.05;;;;;;;28.63;13.34;101871.31;5021931;28;20442;-80
2021/04/09 07:42:44;;;;;;;11.13;4.22;;;;;;;22.80;18.52;101856.72;5023365;28;20047;-79
2021/04/09 07:45:30;;;;;;;11.63;3.13;;;;;;;21.45;20.05;101852.38;5023466;28;20065;-80
2021/04/09 07:48:18;;;;;;;10.45;3.72;;;;;;;23.53;18.17;101854.66;5022139;28;20053;-80
2021/04/09 07:51:06;;;;;;;11.18;2.53;;;;;;;22.32;19.14;101851.84;5022659;28;20068;-80
2021/04/09 07:53:51;;;;;;;13.90;3.88;;;;;;;23.69;17.82;101858.06;5024888;28;20037;-80
2021/04/09 07:56:46;;;;;;;14.15;3.95;;;;;;;21.87;19.73;101856.09;5026850;28;20516;-79
2021/04/09 07:59:37;;;;;;;13.57;4.03;;;;;;;18.11;24.63;101855.47;5026785;28;20056;-79
2021/04/09 08:02:38;;;;;;;13.80;4.00;;;;;;;23.83;18.30;101861.03;5029265;28;20052;-79
2021/04/09 08:05:26;;;;;;;16.23;4.30;;;;;;;24.90;16.57;101854.66;5025982;28;20052;-79
2021/04/09 08:08:18;;;;;;;9.18;3.10;;;;;;;25.75;15.58;101858.81;5024378;28;20053;-79
2021/04/09 08:11:26;;;;;;;19.48;3.92;;;;;;;25.81;15.76;101859.22;5028401;28;20044;-79
2021/04/09 08:14:14;;;;;;;10.30;3.60;;;;;;;22.37;18.76;101855.13;5007265;28;20513;-79
2021/04/09 08:17:11;;;;;;;10.85;2.75;;;;;;;23.13;18.30;101855.25;5027623;28;20044;-80
2021/04/09 08:19:56;;;;;;;9.48;2.50;;;;;;;20.52;21.34;101851.28;5026904;28;20045;-79
2021/04/09 08:22:42;;;;;;;5.72;2.78;;;;;;;23.87;17.13;101859.13;5029590;28;20045;-79
2021/04/09 08:25:28;;;;;;;6.20;3.30;;;;;;;26.61;15.20;101857.09;5028775;28;20049;-80
2021/04/09 08:28:14;;;;;;;13.80;3.40;;;;;;;25.77;16.09;101850.06;5023266;28;20045;-80
2021/04/09 08:30:59;;;;;;;21.27;3.88;;;;;;;26.55;15.59;101861.47;5022996;28;20132;-79
2021/04/09 08:33:45;;;;;;;24.13;4.53;;;;;;;24.48;17.28;101852.28;5028683;28;20041;-80
2021/04/09 08:36:31;;;;;;;5.97;3.00;;;;;;;25.16;16.96;101854.47;5012541;28;20049;-79
2021/04/09 08:39:18;;;;;;;8.13;2.78;;;;;;;26.77;15.25;101858.28;5025070;28;20049;-80
2021/04/09 08:42:04;;;;;;;9.10;3.47;;;;;;;23.37;18.18;101849.25;5027753;28;20045;-79
2021/04/09 08:44:49;;;;;;;9.48;3.92;;;;;;;26.64;15.85;101853.50;5027204;28;20048;-80
2021/04/09 08:47:35;;;;;;;9.20;3.53;;;;;;;26.37;15.68;101856.66;5021398;28;20065;-80
2021/04/09 08:50:20;;;;;;;5.65;2.97;;;;;;;27.57;14.79;101855.88;5026599;28;20052;-80
2021/04/09 08:53:05;;;;;;;8.32;3.88;;;;;;;28.72;13.55;101856.88;5026187;28;20045;-80
2021/04/09 08:55:51;;;;;;;9.18;2.83;;;;;;;29.28;13.36;101855.56;5025547;28;20044;-80
2021/04/09 08:58:46;;;;;;;9.20;4.03;;;;;;;29.82;12.95;101855.78;5026329;28;20044;-80
2021/04/09 09:01:31;;;;;;;5.30;2.78;;;;;;;29.29;13.15;101846.75;5025070;28;20052;-80
2021/04/09 09:04:36;;;;;;;15.13;3.97;;;;;;;27.32;14.90;101855.09;5020954;28;20053;-79
2021/04/09 09:07:39;;;;;;;;;;;;;;;27.26;14.82;101859.50;5027780;28;20065;-80
2021/04/09 09:10:27;;;;;;;8.00;3.05;;;;;;;30.05;12.64;101864.31;5024813;28;19913;-79
2021/04/09 09:13:21;;;;;;;6.53;3.47;;;;;;;27.66;14.19;101852.63;5029213;28;20517;-80
2021/04/09 09:16:20;;;;;;;8.15;3.70;;;;;;;30.73;12.11;101858.53;5025537;28;20068;-80
2021/04/09 09:19:04;;;;;;;5.20;3.45;;;;;;;31.15;12.00;101857.81;5022604;28;20053;-80
2021/04/09 09:22:10;;;;;;;6.97;3.50;;;;;;;28.63;13.24;101854.53;5029029;28;20056;-80
2021/04/09 09:25:05;;;;;;;9.68;3.50;;;;;;;29.45;13.16;101854.63;5025127;28;20040;-80
2021/04/09 09:27:52;;;;;;;10.55;3.38;;;;;;;28.73;13.39;101847.28;5026283;28;20060;-80
2021/04/09 09:30:40;;;;;;;7.13;3.45;;;;;;;28.58;13.51;101857.75;5074279;22;20049;-77
2021/04/09 09:33:29;;;;;;;11.75;3.53;;;;;;;26.44;15.55;101844.72;5046428;28;20417;-77
2021/04/09 09:36:14;;;;;;;15.30;3.28;;;;;;;28.85;13.58;101844.75;5050364;28;20043;-77
2021/04/09 09:38:59;;;;;;;14.27;3.40;;;;;;;29.90;13.05;101846.88;5046885;28;20055;-77
2021/04/09 09:41:44;;;;;;;5.90;3.47;;;;;;;30.38;12.63;101857.03;5046644;28;20044;-77
2021/04/09 09:44:34;;;;;;;12.23;3.42;;;;;;;27.49;15.01;101848.69;5050476;28;20056;-78
2021/04/09 09:47:23;;;;;;;6.32;4.13;;;;;;;28.82;13.91;101844.78;5065655;28;20051;-78
2021/04/09 09:50:23;;;;;;;9.88;3.08;;;;;;;30.37;12.48;101842.22;5045885;28;20112;-77
2021/04/09 09:53:08;;;;;;;6.18;3.88;;;;;;;32.36;11.11;101846.88;5049003;28;20032;-78
2021/04/09 09:55:55;;;;;;;13.80;2.80;;;;;;;32.80;10.94;101832.16;5048079;28;20048;-78
2021/04/09 09:58:40;;;;;;;9.45;3.30;;;;;;;31.68;11.72;101842.75;5050683;28;20053;-78
2021/04/09 10:01:26;;;;;;;14.45;2.85;;;;;;;33.83;10.11;101840.63;5049187;28;20052;-78
2021/04/09 10:04:14;;;;;;;8.45;2.67;;;;;;;33.28;10.15;101833.31;5047896;28;20040;-78
2021/04/09 10:07:06;;;;;;;18.58;3.45;;;;;;;33.91;9.74;101833.50;5052392;28;20049;-78
2021/04/09 10:09:53;;;;;;;7.47;2.85;;;;;;;33.39;10.26;101834.59;5048541;28;20036;-78
2021/04/09 10:12:38;;;;;;;8.25;3.17;;;;;;;34.09;9.68;101835.78;5046363;28;20044;-77
2021/04/09 10:15:28;;;;;;;6.97;3.05;;;;;;;34.29;9.68;101830.72;5050275;28;20056;-78
2021/04/09 10:18:13;;;;;;;7.75;3.20;;;;;;;34.49;9.88;101819.97;5048779;28;20044;-78
2021/04/09 10:21:32;;;;;;;6.10;3.50;;;;;;;32.68;11.17;101810.31;5046739;28;20056;-77
2021/04/09 10:24:19;;;;;;;11.68;3.78;;;;;;;33.33;10.31;101818.66;5039787;28;20448;-78
2021/04/09 10:27:04;;;;;;;5.30;3.05;;;;;;;31.63;11.73;101812.31;5051411;28;20048;-78
2021/04/09 10:29:49;;;;;;;6.70;2.78;;;;;;;32.83;10.86;101805.09;5044958;28;20045;-78
2021/04/09 10:32:34;;;;;;;8.30;2.20;;;;;;;33.53;10.42;101814.44;5050895;28;20095;-79
2021/04/09 10:35:29;;;;;;;8.18;2.13;;;;;;;32.63;10.98;101800.34;5049117;28;20060;-79
2021/04/09 10:38:16;;;;;;;12.95;1.90;;;;;;;34.28;10.15;101813.00;5051766;28;20044;-78
2021/04/09 10:41:01;;;;;;;4.95;2.05;;;;;;;35.00;9.77;101817.06;5045432;28;20052;-78
2021/04/09 10:44:03;;;;;;;6.25;2.55;;;;;;;32.36;11.39;101799.00;5057364;28;20401;-79
2021/04/09 10:46:59;;;;;;;4.55;3.10;;;;;;;30.48;12.96;101795.13;5049801;28;20091;-79
2021/04/09 10:49:45;;;;;;;23.83;3.22;;;;;;;34.59;10.26;101804.69;5045622;28;20044;-77
2021/04/09 10:52:32;;;;;;;8.40;2.22;;;;;;;34.03;10.13;101800.91;5045386;28;20405;-79
2021/04/09 10:55:16;;;;;;;5.40;2.25;;;;;;;36.75;8.53;101801.38;5050050;28;20048;-79
2021/04/09 10:58:02;;;;;;;14.93;2.60;;;;;;;34.70;9.62;101793.06;5048037;28;20520;-79
2021/04/09 11:00:47;;;;;;;11.07;2.60;;;;;;;34.42;10.32;101794.78;5044035;28;20063;-78
2021/04/09 11:03:32;;;;;;;16.27;1.88;;;;;;;31.52;12.17;101779.97;5050115;28;20044;-77
2021/04/09 11:06:21;;;;;;;6.28;2.10;;;;;;;33.49;10.75;101779.91;5045613;28;20064;-77
2021/04/09 11:09:08;;;;;;;11.55;2.38;;;;;;;31.79;12.04;101783.44;5046794;28;20056;-78
2021/04/09 11:11:53;;;;;;;9.05;1.80;;;;;;;32.62;11.21;101769.78;5054627;28;20044;-78
2021/04/09 11:14:38;;;;;;;5.38;2.45;;;;;;;25.39;17.71;101767.88;5041676;28;20402;-78
2021/04/09 11:17:25;;;;;;;6.07;2.17;;;;;;;24.75;19.14;101753.53;5045966;28;20068;-78
2021/04/09 11:20:24;;;;;;;6.63;1.92;;;;;;;25.26;18.73;101761.03;5048141;28;20417;-77
2021/04/09 11:23:14;;;;;;;13.90;2.97;;;;;;;26.22;17.61;101762.19;5066078;28;20040;-78
2021/04/09 11:25:58;;;;;;;4.55;3.25;;;;;;;24.48;19.50;101750.16;5044167;28;20119;-78
2021/04/09 11:28:54;;;;;;;5.15;2.45;;;;;;;24.50;19.46;101742.22;5048729;28;20059;-78
2021/04/09 11:31:39;;;;;;;6.72;1.73;;;;;;;25.42;18.42;101744.81;5043684;28;20049;-77
2021/04/09 11:34:41;;;;;;;13.60;2.60;;;;;;;25.64;18.28;101737.38;5044358;28;20516;-78
2021/04/09 11:37:41;;;;;;;5.78;2.10;;;;;;;24.24;19.93;101742.41;5048549;28;20528;-78
2021/04/09 11:40:41;;;;;;;9.95;2.63;;;;;;;23.65;20.94;101738.59;5044743;28;20041;-78
2021/04/09 11:43:27;;;;;;;14.07;2.58;;;;;;;24.85;19.32;101726.97;5048643;28;20048;-78
2021/04/09 11:46:30;;;;;;;16.90;3.35;;;;;;;25.05;19.66;101722.75;5042401;28;20048;-78
2021/04/09 11:49:16;;;;;;;9.43;2.35;;;;;;;23.91;20.38;101723.81;5039757;28;20049;-77
2021/04/09 11:52:01;;;;;;;9.68;2.45;;;;;;;22.26;22.14;101726.63;5040543;28;20045;-78
2021/04/09 11:54:46;;;;;;;10.65;2.72;;;;;;;21.40;23.93;101717.84;5035673;28;20049;-80
2021/04/09 11:57:33;;;;;;;7.30;2.72;;;;;;;22.21;22.89;101726.94;5044280;28;20068;-78
2021/04/09 12:00:25;;;;;;;5.05;2.28;;;;;;;22.45;22.53;101714.69;5052803;28;20068;-79
2021/04/09 12:03:10;;;;;;;12.93;2.88;;;;;;;23.05;21.77;101720.34;5046598;28;20512;-78
2021/04/09 12:06:18;;;;;;;10.80;3.08;;;;;;;24.57;19.71;101719.25;5050345;28;20056;-79
2021/04/09 12:09:05;;;;;;;14.13;2.70;;;;;;;26.43;17.73;101719.56;5048958;28;20409;-79
2021/04/09 12:11:50;;;;;;;8.38;2.40;;;;;;;26.49;17.65;101715.19;5048589;28;20052;-79
2021/04/09 12:14:37;;;;;;;39.13;2.85;;;;;;;25.38;18.90;101710.59;5047890;28;20257;-79
2021/04/09 12:17:24;;;;;;;8.63;1.85;;;;;;;28.70;15.71;101720.06;5047218;28;20044;-79
2021/04/09 12:20:15;;;;;;;9.82;2.30;;;;;;;26.38;17.25;101704.03;5045677;28;20052;-79
2021/04/09 12:23:01;;;;;;;11.18;2.22;;;;;;;30.06;14.52;101715.19;5048441;28;20040;-79
2021/04/09 12:25:45;;;;;;;16.20;2.42;;;;;;;27.20;16.50;101699.91;5049895;28;20449;-78
2021/04/09 12:28:31;;;;;;;11.38;2.50;;;;;;;25.48;18.50;101693.13;5046702;28;20052;-79
2021/04/09 12:31:15;;;;;;;7.25;2.28;;;;;;;25.70;18.69;101688.44;5045922;28;20045;-79
2021/04/09 12:34:00;;;;;;;13.13;2.40;;;;;;;28.40;15.20;101689.97;5046544;28;20037;-78
2021/04/09 12:36:47;;;;;;;6.50;2.58;;;;;;;25.71;18.58;101695.56;5045761;28;20053;-79
2021/04/09 12:39:31;;;;;;;9.77;2.33;;;;;;;26.44;17.29;101688.50;5051133;28;20052;-79
2021/04/09 12:42:17;;;;;;;7.78;2.42;;;;;;;26.82;16.81;101675.66;5052087;28;20513;-78
2021/04/09 12:45:03;;;;;;;4.75;1.83;;;;;;;25.10;18.76;101667.50;5047790;28;20056;-78
2021/04/09 12:47:49;;;;;;;3.58;1.80;;;;;;;26.30;17.17;101669.00;5053429;28;20052;-77
2021/04/09 12:50:34;;;;;;;17.40;3.03;;;;;;;24.02;19.97;101651.66;5048781;28;20044;-78
2021/04/09 12:53:19;;;;;;;8.07;2.05;;;;;;;23.32;20.71;101656.06;5048291;28;20045;-78
2021/04/09 12:56:04;;;;;;;5.90;2.03;;;;;;;24.91;19.28;101655.88;5052764;28;20044;-78
2021/04/09 12:58:48;;;;;;;8.77;2.00;;;;;;;23.41;20.67;101645.50;5051479;28;20116;-78
2021/04/09 13:01:34;;;;;;;4.30;1.75;;;;;;;23.79;20.83;101637.94;5048853;28;20060;-78